Time;durP1;ratioP1;P1;durP2;ratioP2;P2;SDS_P1;SDS_P2;PMS_P1;PMS_P2;Temp;Humidity;BMP_temperature;BMP_pressure;BME280_temperature;BME280_humidity;BME280_pressure;Samples;Min_cycle;Max_cycle;Signal;HPM_P1;HPM_P2
2022/11/06 00:00:37;;;;;;;12.63;4.80;;;;;;;9.04;100.00;101272.22;5021473;28;20029;-72
2022/11/06 00:03:03;;;;;;;10.40;4.55;;;;;;;9.05;100.00;101293.59;5033481;28;20017;-72
2022/11/06 00:08:13;;;;;;;11.75;4.80;;;;;;;9.04;100.00;101289.25;5034644;28;20044;-71
2022/11/06 00:10:38;;;;;;;11.55;4.47;;;;;;;8.99;100.00;101280.09;5033392;28;20029;-72
2022/11/06 00:13:04;;;;;;;7.07;3.80;;;;;;;8.98;100.00;101283.81;5033512;28;20029;-72
2022/11/06 00:15:29;;;;;;;12.30;4.50;;;;;;;8.96;100.00;101283.22;5034014;28;20017;-71
2022/11/06 00:17:55;;;;;;;14.95;4.60;;;;;;;8.96;100.00;101283.22;5033103;28;20040;-72
2022/11/06 00:20:21;;;;;;;14.50;4.13;;;;;;;8.93;100.00;101278.22;5033054;28;20029;-72
2022/11/06 00:22:46;;;;;;;15.05;3.83;;;;;;;8.90;100.00;101282.16;5032484;28;20036;-71
2022/11/06 00:25:11;;;;;;;9.68;4.13;;;;;;;8.90;100.00;101275.94;5033480;28;20029;-71
2022/11/06 00:27:38;;;;;;;12.48;4.45;;;;;;;8.87;100.00;101277.16;5033990;28;20025;-72
2022/11/06 00:30:05;;;;;;;10.27;4.10;;;;;;;8.85;100.00;101277.34;5032778;28;20069;-71
2022/11/06 00:32:31;;;;;;;12.15;4.25;;;;;;;8.84;100.00;101277.56;5033566;28;20112;-71
2022/11/06 00:34:56;;;;;;;10.80;3.97;;;;;;;8.83;100.00;101273.19;5032706;28;20040;-71
2022/11/06 00:37:21;;;;;;;12.38;4.32;;;;;;;8.84;100.00;101258.66;5032413;28;20025;-71
2022/11/06 00:39:46;;;;;;;11.05;3.90;;;;;;;8.81;100.00;101248.28;5033347;28;20026;-73
2022/11/06 00:42:12;;;;;;;11.95;3.92;;;;;;;8.81;100.00;101253.69;5033888;28;20108;-71
2022/11/06 00:44:37;;;;;;;14.52;4.00;;;;;;;8.81;100.00;101242.88;5017011;28;20482;-72
2022/11/06 00:47:02;;;;;;;10.18;3.70;;;;;;;8.78;100.00;101251.38;5013116;28;20025;-71
2022/11/06 00:49:28;;;;;;;9.20;3.97;;;;;;;8.76;100.00;101248.06;5013833;28;20038;-71
2022/11/06 00:51:53;;;;;;;13.40;4.35;;;;;;;8.76;100.00;101239.97;5032024;28;20075;-71
2022/11/06 00:54:18;;;;;;;8.65;3.88;;;;;;;8.77;100.00;101253.28;5020182;28;20022;-71
2022/11/06 00:56:44;;;;;;;10.68;3.92;;;;;;;8.76;100.00;101245.38;5013216;28;20036;-72
2022/11/06 00:59:11;;;;;;;9.57;3.90;;;;;;;8.77;100.00;101258.66;5013861;28;20113;-72
2022/11/06 01:01:40;;;;;;;10.48;3.90;;;;;;;8.74;100.00;101263.63;5026941;28;20026;-71
2022/11/06 01:04:15;;;;;;;9.20;3.28;;;;;;;8.77;100.00;101261.38;5032551;28;20037;-70
2022/11/06 01:06:43;;;;;;;12.30;3.60;;;;;;;8.72;100.00;101260.31;5033347;28;20059;-71
2022/11/06 01:09:12;;;;;;;13.88;4.32;;;;;;;8.69;100.00;101256.94;5032322;28;20040;-71
2022/11/06 01:11:41;;;;;;;11.13;3.70;;;;;;;8.71;100.00;101261.31;5033179;28;20053;-71
2022/11/06 01:14:08;;;;;;;11.77;3.90;;;;;;;8.69;100.00;101256.94;5032068;28;20056;-72
2022/11/06 01:16:33;;;;;;;9.70;3.70;;;;;;;8.69;100.00;101251.56;5032254;28;20021;-71
2022/11/06 01:18:59;;;;;;;10.75;3.65;;;;;;;8.71;100.00;101248.69;5023704;28;20032;-72
2022/11/06 01:21:36;;;;;;;13.60;3.67;;;;;;;8.72;100.00;101241.41;5013245;28;20025;-72
2022/11/06 01:24:09;;;;;;;11.05;3.92;;;;;;;8.71;100.00;101245.13;5022610;28;20444;-72
2022/11/06 01:26:35;;;;;;;11.60;3.38;;;;;;;8.69;100.00;101239.94;5032825;28;20018;-72
2022/11/06 01:29:01;;;;;;;9.57;3.60;;;;;;;8.72;100.00;101238.72;5031826;28;20085;-72
2022/11/06 01:31:28;;;;;;;11.43;3.85;;;;;;;8.72;100.00;101236.00;5031379;28;20521;-71
2022/11/06 01:33:55;;;;;;;11.43;3.40;;;;;;;8.75;100.00;101235.59;5030576;28;20415;-73
2022/11/06 01:36:21;;;;;;;10.75;3.33;;;;;;;8.74;100.00;101223.13;5032876;28;20030;-72
2022/11/06 01:38:49;;;;;;;10.27;3.50;;;;;;;8.72;100.00;101228.75;5030561;28;20100;-70
2022/11/06 01:41:20;;;;;;;9.68;3.53;;;;;;;8.74;100.00;101217.75;5031423;28;20048;-72
2022/11/06 01:43:53;;;;;;;12.18;3.60;;;;;;;8.78;100.00;101219.00;5030005;28;20028;-72
2022/11/06 01:46:20;;;;;;;14.80;3.63;;;;;;;8.79;100.00;101213.41;5031569;28;20516;-72
2022/11/06 01:48:51;;;;;;;8.35;3.40;;;;;;;8.81;100.00;101213.19;5029919;28;20029;-71
2022/11/06 01:51:17;;;;;;;;;;;;;;;8.92;100.00;101228.78;5021779;28;20091;-71
2022/11/06 01:53:42;;;;;;;11.82;3.63;;;;;;;8.83;100.00;101225.47;5018737;28;19908;-71
2022/11/06 01:56:10;;;;;;;9.85;3.20;;;;;;;8.81;100.00;101213.19;5032322;28;20034;-72
2022/11/06 01:58:39;;;;;;;10.68;3.38;;;;;;;8.84;100.00;101215.50;5031515;28;20364;-72
2022/11/06 02:01:06;;;;;;;12.95;3.05;;;;;;;8.87;100.00;101209.69;5030275;28;20040;-72
2022/11/06 02:03:31;;;;;;;11.18;3.13;;;;;;;8.85;100.00;101211.78;5029978;28;20032;-72
2022/11/06 02:05:57;;;;;;;12.00;3.50;;;;;;;8.89;100.00;101212.19;5024422;28;20100;-71
2022/11/06 02:08:23;;;;;;;11.45;3.47;;;;;;;8.90;100.00;101209.28;5027732;28;20034;-71
2022/11/06 02:10:49;;;;;;;14.52;3.38;;;;;;;8.92;100.00;101200.97;5032353;28;20029;-71
2022/11/06 02:13:20;;;;;;;14.68;3.33;;;;;;;8.95;100.00;101204.09;5031111;28;20122;-72
2022/11/06 02:15:50;;;;;;;13.27;3.30;;;;;;;8.98;100.00;101211.78;5032228;28;20071;-72
2022/11/06 02:18:45;;;;;;;12.43;3.75;;;;;;;9.01;100.00;101197.03;5012102;28;20604;-71
2022/11/06 02:21:19;;;;;;;15.43;3.60;;;;;;;9.01;100.00;101205.13;5011611;28;20089;-70
2022/11/06 02:24:18;;;;;;;11.73;3.35;;;;;;;9.01;100.00;101192.50;5018049;28;20026;-70
2022/11/06 02:27:25;;;;;;;11.15;3.30;;;;;;;9.00;100.00;101195.41;5030671;28;20033;-71
2022/11/06 02:29:59;;;;;;;14.30;3.47;;;;;;;8.99;100.00;101191.03;5009533;28;20080;-72
2022/11/06 02:32:35;;;;;;;9.57;3.17;;;;;;;8.97;100.00;101190.41;5028740;28;20128;-72
2022/11/06 02:35:04;;;;;;;10.20;3.20;;;;;;;8.95;100.00;101185.22;5030932;28;20021;-71
2022/11/06 02:37:35;;;;;;;10.77;3.13;;;;;;;8.94;100.00;101178.16;5029753;28;20056;-72
2022/11/06 02:40:05;;;;;;;10.27;2.95;;;;;;;8.96;100.00;101176.06;5032274;28;20026;-73
2022/11/06 02:42:34;;;;;;;10.75;3.33;;;;;;;8.93;100.00;101171.06;5032026;28;20026;-71
2022/11/06 02:45:01;;;;;;;11.55;3.10;;;;;;;8.94;100.00;101177.31;5031045;28;20095;-72
2022/11/06 02:47:30;;;;;;;14.75;3.42;;;;;;;8.92;100.00;101182.06;5031263;28;20048;-72
2022/11/06 02:50:05;;;;;;;12.02;3.42;;;;;;;8.96;100.00;101175.25;5030792;28;20033;-72
2022/11/06 02:52:37;;;;;;;10.52;3.03;;;;;;;8.96;100.00;101176.06;5031717;28;20108;-72
2022/11/06 02:55:21;;;;;;;7.88;2.97;;;;;;;8.97;100.00;101177.72;5032057;28;20040;-73
2022/11/06 02:57:53;;;;;;;8.85;3.05;;;;;;;8.96;100.00;101176.06;5031121;28;20524;-71
2022/11/06 03:00:18;;;;;;;;;;;;;;;9.08;100.00;101178.97;5016389;28;20029;-72
2022/11/06 03:02:56;;;;;;;10.32;3.35;;;;;;;9.01;100.00;101184.38;5029539;28;19912;-71
2022/11/06 03:05:36;;;;;;;11.38;3.25;;;;;;;8.98;100.00;101182.09;5030753;28;20373;-73
2022/11/06 03:08:09;;;;;;;11.73;3.83;;;;;;;8.96;100.00;101189.56;5031140;28;20033;-71
2022/11/06 03:11:05;;;;;;;11.90;3.30;;;;;;;8.96;100.00;101192.25;5034027;28;20187;-71
2022/11/06 03:14:01;;;;;;;11.20;3.28;;;;;;;9.01;100.00;101211.38;5029909;28;20480;-71
2022/11/06 03:16:53;;;;;;;9.35;2.83;;;;;;;9.01;100.00;101188.94;5034351;28;20021;-72
2022/11/06 03:19:44;;;;;;;8.38;2.90;;;;;;;9.02;100.00;101169.84;5035609;28;20033;-72
2022/11/06 03:22:32;;;;;;;8.75;3.17;;;;;;;8.99;100.00;101174.81;5015414;28;20022;-71
2022/11/06 03:25:08;;;;;;;7.95;2.70;;;;;;;8.98;100.00;101160.50;5015135;28;20058;-72
2022/11/06 03:27:42;;;;;;;8.95;2.97;;;;;;;8.96;100.00;101150.94;5026977;28;20060;-72
2022/11/06 03:30:10;;;;;;;10.60;3.50;;;;;;;8.96;100.00;101153.66;5034244;28;20038;-72
2022/11/06 03:32:54;;;;;;;8.43;2.97;;;;;;;8.92;100.00;101147.81;5034781;28;20080;-71
2022/11/06 03:35:42;;;;;;;9.75;2.75;;;;;;;8.94;100.00;101140.34;5035102;28;20022;-72
2022/11/06 03:38:12;;;;;;;10.50;3.10;;;;;;;8.90;100.00;101138.28;5033829;28;20135;-72
2022/11/06 03:40:45;;;;;;;10.70;3.45;;;;;;;8.89;100.00;101132.03;5033655;28;20029;-72
2022/11/06 03:43:15;;;;;;;11.60;3.25;;;;;;;8.88;100.00;101135.78;5035383;28;20030;-71
2022/11/06 03:45:43;;;;;;;15.48;3.20;;;;;;;8.89;100.00;101133.91;5034805;28;20476;-71
2022/11/06 03:48:14;;;;;;;7.80;2.78;;;;;;;8.91;100.00;101132.69;5034336;28;20510;-71
2022/11/06 03:50:45;;;;;;;10.45;3.17;;;;;;;8.94;100.00;101126.03;5032661;28;20377;-72
2022/11/06 03:53:19;;;;;;;11.82;2.85;;;;;;;8.92;100.00;101115.44;5034947;28;20060;-71
2022/11/06 03:55:50;;;;;;;15.68;3.67;;;;;;;8.92;100.00;101111.91;5033372;28;20183;-71
2022/11/06 03:58:30;;;;;;;9.52;2.90;;;;;;;8.97;100.00;101102.16;5029476;28;20376;-71
2022/11/06 04:00:58;;;;;;;13.07;3.20;;;;;;;8.96;100.00;101105.88;5012268;28;20036;-72
2022/11/06 04:03:32;;;;;;;10.20;3.22;;;;;;;8.96;100.00;101103.19;5014915;28;20022;-71
2022/11/06 04:06:17;;;;;;;9.82;3.08;;;;;;;9.00;100.00;101101.75;5014385;28;20462;-71
2022/11/06 04:14:22;;;;;;;11.10;2.90;;;;;;;8.98;100.00;101103.81;5034601;28;20100;-71
2022/11/06 04:16:54;;;;;;;10.70;2.92;;;;;;;8.98;100.00;101100.28;5033079;28;20034;-71
2022/11/06 04:19:21;;;;;;;9.40;2.95;;;;;;;8.98;100.00;101093.03;5034532;28;20051;-71
2022/11/06 04:22:07;;;;;;;13.93;3.10;;;;;;;9.03;100.00;101087.81;5032017;28;20523;-71
2022/11/06 04:28:06;;;;;;;11.00;2.78;;;;;;;9.00;100.00;101058.53;5033146;28;20432;-71
2022/11/06 04:30:40;;;;;;;10.25;2.80;;;;;;;9.02;100.00;101069.94;5033092;28;20060;-71
2022/11/06 04:33:41;;;;;;;10.70;3.13;;;;;;;9.04;100.00;101070.59;5034162;28;20029;-72
2022/11/06 04:36:21;;;;;;;6.85;2.70;;;;;;;9.02;100.00;101071.84;5033528;28;20029;-71
2022/11/06 04:39:02;;;;;;;13.68;3.33;;;;;;;9.01;100.00;101065.63;5014195;28;20034;-72
2022/11/06 04:41:37;;;;;;;13.07;3.00;;;;;;;9.00;100.00;101071.22;5026487;28;20029;-72
2022/11/06 04:44:18;;;;;;;9.20;2.97;;;;;;;8.97;100.00;101067.06;5033911;28;20029;-71
2022/11/06 04:46:53;;;;;;;10.32;3.20;;;;;;;8.98;100.00;101075.97;5032742;28;20511;-72
2022/11/06 04:49:20;;;;;;;8.65;2.72;;;;;;;8.95;100.00;101063.75;5033551;28;20039;-71
2022/11/06 04:51:46;;;;;;;11.35;2.90;;;;;;;8.95;100.00;101062.91;5033250;28;20567;-72
2022/11/06 04:54:12;;;;;;;10.90;2.90;;;;;;;8.95;100.00;101061.06;5034042;28;20104;-71
2022/11/06 04:56:38;;;;;;;10.23;3.15;;;;;;;8.92;100.00;101058.75;5029906;28;20468;-72
2022/11/06 04:59:04;;;;;;;6.88;2.72;;;;;;;8.94;100.00;101064.78;5030012;28;20033;-71
2022/11/06 05:01:29;;;;;;;9.75;3.33;;;;;;;8.91;100.00;101056.25;5031235;28;20025;-72
2022/11/06 05:03:54;;;;;;;9.75;3.00;;;;;;;8.93;100.00;101054.19;5033372;28;20040;-72
2022/11/06 05:06:20;;;;;;;8.63;2.70;;;;;;;8.92;100.00;101052.53;5032719;28;20037;-71
2022/11/06 05:08:45;;;;;;;9.60;3.05;;;;;;;8.91;100.00;101051.72;5020240;28;20041;-72
2022/11/06 05:11:10;;;;;;;9.18;2.80;;;;;;;8.90;100.00;101047.34;5013775;28;20033;-72
2022/11/06 05:13:37;;;;;;;11.20;3.20;;;;;;;8.91;100.00;101046.31;5013690;28;20088;-70
2022/11/06 05:16:02;;;;;;;11.18;3.28;;;;;;;8.89;100.00;101034.88;5012947;28;20030;-72
2022/11/06 05:18:28;;;;;;;10.98;2.95;;;;;;;8.87;100.00;101031.56;5028169;28;20112;-72
2022/11/06 05:22:56;;;;;;;10.18;2.78;;;;;;;8.87;100.00;101029.69;5032969;28;20063;-72
2022/11/06 05:23:39;;;;;;;6.97;2.70;;;;;;;8.84;100.00;101030.09;5032666;28;20034;-72
2022/11/06 05:26:06;;;;;;;10.52;2.95;;;;;;;8.85;100.00;101022.84;5033140;28;20029;-72
2022/11/06 05:28:32;;;;;;;10.00;2.90;;;;;;;8.85;100.00;101033.66;5029671;28;20101;-71
2022/11/06 05:30:57;;;;;;;9.60;3.10;;;;;;;8.86;100.00;101035.28;5032857;28;20120;-71
2022/11/06 05:33:22;;;;;;;10.07;3.17;;;;;;;8.82;100.00;101025.97;5032810;28;20049;-71
2022/11/06 05:35:48;;;;;;;10.75;3.38;;;;;;;8.81;100.00;101027.00;5032528;28;20032;-72
2022/11/06 05:38:13;;;;;;;9.35;3.35;;;;;;;8.82;100.00;101029.50;5021878;28;20088;-71
2022/11/06 05:40:39;;;;;;;11.05;3.15;;;;;;;8.80;100.00;101019.94;5013580;28;20034;-71
2022/11/06 05:43:04;;;;;;;11.75;3.00;;;;;;;8.85;100.00;101017.47;5012858;28;20026;-71
2022/11/06 05:45:29;;;;;;;11.20;3.22;;;;;;;8.83;100.00;101017.69;5012880;28;20084;-71
2022/11/06 05:47:54;;;;;;;6.90;2.70;;;;;;;8.83;100.00;101016.81;5023180;28;20104;-72
2022/11/06 05:50:20;;;;;;;7.97;2.67;;;;;;;8.84;100.00;101023.88;5032860;28;20029;-71
2022/11/06 05:52:45;;;;;;;9.32;3.28;;;;;;;8.85;100.00;101017.47;5020681;28;20450;-71
2022/11/06 05:55:11;;;;;;;11.40;3.17;;;;;;;8.85;100.00;101012.06;5012986;28;20028;-71
2022/11/06 05:57:36;;;;;;;9.93;2.78;;;;;;;8.84;100.00;101015.78;5016390;28;20021;-72
2022/11/06 06:00:03;;;;;;;10.10;2.92;;;;;;;8.86;100.00;101011.00;5012810;28;20446;-72
2022/11/06 06:02:28;;;;;;;5.60;2.50;;;;;;;8.85;100.00;101004.78;5028542;28;20040;-72
2022/11/06 06:04:54;;;;;;;7.93;2.70;;;;;;;8.84;100.00;100994.22;5032389;28;20032;-72
2022/11/06 06:07:19;;;;;;;5.65;2.63;;;;;;;8.83;100.00;101000.63;5032351;28;20037;-72
2022/11/06 06:09:44;;;;;;;10.68;2.80;;;;;;;8.81;100.00;101010.81;5031101;28;20021;-72
2022/11/06 06:12:12;;;;;;;8.05;2.90;;;;;;;8.81;100.00;101006.25;5030546;28;20104;-72
2022/11/06 06:14:37;;;;;;;9.50;2.90;;;;;;;8.78;100.00;101005.84;5032465;28;20041;-71
2022/11/06 06:17:02;;;;;;;7.13;2.60;;;;;;;8.80;100.00;100999.22;5031985;28;20449;-72
2022/11/06 06:19:28;;;;;;;8.88;2.72;;;;;;;8.78;100.00;100995.88;5032232;28;20112;-71
2022/11/06 06:21:56;;;;;;;9.02;3.17;;;;;;;8.79;100.00;100984.03;5030414;28;20052;-72
2022/11/06 06:24:21;;;;;;;7.20;2.67;;;;;;;8.79;100.00;100992.13;5030908;28;20152;-72
2022/11/06 06:26:46;;;;;;;8.82;2.80;;;;;;;8.77;100.00;100994.22;5032018;28;20104;-72
2022/11/06 06:29:12;;;;;;;8.82;2.70;;;;;;;8.78;100.00;100995.03;5030784;28;20380;-71
2022/11/06 06:31:37;;;;;;;8.38;2.55;;;;;;;8.79;100.00;100989.44;5030816;28;20457;-71
2022/11/06 06:34:03;;;;;;;7.20;2.70;;;;;;;8.78;100.00;100997.75;5031472;28;20124;-71
2022/11/06 06:36:29;;;;;;;10.63;2.60;;;;;;;8.79;100.00;101002.94;5030261;28;20460;-70
2022/11/06 06:38:54;;;;;;;8.00;2.67;;;;;;;8.80;100.00;101004.59;5030173;28;20033;-71
2022/11/06 06:41:20;;;;;;;7.18;2.70;;;;;;;8.81;100.00;101010.81;5030852;28;20021;-71
2022/11/06 06:43:49;;;;;;;8.65;2.90;;;;;;;8.81;100.00;101006.25;5032183;28;20415;-72
2022/11/06 06:46:15;;;;;;;10.88;3.05;;;;;;;8.83;100.00;101014.13;5027926;28;20068;-70
2022/11/06 06:48:40;;;;;;;8.77;3.05;;;;;;;8.83;100.00;100998.78;5032544;28;20103;-70
2022/11/06 06:51:06;;;;;;;10.27;3.00;;;;;;;8.85;100.00;101012.06;5035098;28;20033;-71
2022/11/06 06:53:33;;;;;;;9.73;2.97;;;;;;;8.84;100.00;100995.03;5035592;28;20021;-71
2022/11/06 06:55:59;;;;;;;10.32;2.80;;;;;;;8.88;100.00;101000.84;5035098;28;20033;-71
2022/11/06 06:58:24;;;;;;;10.90;2.90;;;;;;;8.87;100.00;100993.78;5031755;28;20507;-71
2022/11/06 07:00:50;;;;;;;9.35;2.90;;;;;;;8.90;100.00;100982.56;5032780;28;20029;-71
2022/11/06 07:03:15;;;;;;;9.55;2.78;;;;;;;8.94;100.00;100993.78;5035306;28;20037;-72
2022/11/06 07:05:40;;;;;;;6.60;2.97;;;;;;;8.95;100.00;100988.19;5034881;28;20461;-72
2022/11/06 07:08:06;;;;;;;7.20;2.60;;;;;;;8.98;100.00;100992.31;5033780;28;20033;-72
2022/11/06 07:10:31;;;;;;;6.20;2.67;;;;;;;9.03;100.00;100987.94;5035724;28;20483;-71
2022/11/06 07:13:01;;;;;;;11.60;2.80;;;;;;;9.05;100.00;100991.25;5035115;28;20465;-71
2022/11/06 07:15:26;;;;;;;7.32;2.50;;;;;;;9.12;100.00;100987.69;5035536;28;20025;-72
2022/11/06 07:17:51;;;;;;;10.27;2.92;;;;;;;9.13;100.00;100979.38;5031180;28;20121;-72
2022/11/06 07:20:17;;;;;;;9.77;2.50;;;;;;;9.19;100.00;100985.81;5017750;28;20048;-71
2022/11/06 07:22:43;;;;;;;9.80;2.70;;;;;;;9.22;100.00;100988.09;5034972;28;20037;-71
2022/11/06 07:25:08;;;;;;;7.60;2.72;;;;;;;9.25;100.00;100984.97;5034264;28;20025;-70
2022/11/06 07:27:36;;;;;;;10.20;2.90;;;;;;;9.28;100.00;100984.53;5033353;28;20033;-73
2022/11/06 07:30:03;;;;;;;11.38;3.25;;;;;;;9.32;100.00;100979.56;5033811;28;20056;-72
2022/11/06 07:32:29;;;;;;;8.27;3.30;;;;;;;9.36;100.00;100992.41;5035198;28;20048;-72
2022/11/06 07:34:54;;;;;;;12.90;3.35;;;;;;;9.39;100.00;100986.59;5034638;28;20037;-72
2022/11/06 07:37:19;;;;;;;13.32;3.83;;;;;;;9.44;100.00;100987.81;5034456;28;20124;-73
2022/11/06 07:39:45;;;;;;;9.65;3.20;;;;;;;9.49;100.00;100986.13;5028816;28;20052;-74
2022/11/06 07:42:10;;;;;;;9.57;3.53;;;;;;;9.51;100.00;100989.47;5032918;28;20033;-73
2022/11/06 07:44:35;;;;;;;7.45;3.00;;;;;;;9.54;100.00;100977.38;5034263;28;20083;-73
2022/11/06 07:47:01;;;;;;;9.63;3.70;;;;;;;9.55;100.00;100962.81;5034092;28;20128;-74
2022/11/06 07:49:26;;;;;;;8.82;2.88;;;;;;;9.56;100.00;100959.09;5031563;28;20034;-72
2022/11/06 07:51:51;;;;;;;9.65;3.35;;;;;;;9.59;100.00;100966.75;5034105;28;20035;-74
2022/11/06 07:54:16;;;;;;;10.50;2.88;;;;;;;9.59;100.00;100958.66;5034127;28;20030;-74
2022/11/06 07:56:42;;;;;;;11.20;2.65;;;;;;;9.61;100.00;100956.56;5032789;28;20033;-74
2022/11/06 07:59:07;;;;;;;11.43;3.22;;;;;;;9.64;100.00;100949.91;5032416;28;20041;-74
2022/11/06 08:01:32;;;;;;;5.38;2.60;;;;;;;9.66;100.00;100945.94;5031027;28;20408;-74
2022/11/06 08:03:58;;;;;;;7.82;2.72;;;;;;;9.67;100.00;100953.00;5034050;28;20176;-73
2022/11/06 08:06:23;;;;;;;6.43;2.50;;;;;;;9.69;100.00;100956.31;5032920;28;20029;-72
2022/11/06 08:08:48;;;;;;;8.05;2.40;;;;;;;9.71;100.00;100951.53;5033054;28;20515;-74
2022/11/06 08:11:14;;;;;;;9.68;2.30;;;;;;;9.73;100.00;100959.41;5034084;28;20400;-72
2022/11/06 08:13:39;;;;;;;9.05;2.47;;;;;;;9.74;100.00;100950.25;5024866;28;20033;-73
2022/11/06 08:16:07;;;;;;;6.97;2.33;;;;;;;9.79;100.00;100960.44;5032228;28;20044;-73
2022/11/06 08:18:33;;;;;;;7.82;2.70;;;;;;;9.80;100.00;100948.53;5031779;28;20469;-72
2022/11/06 08:20:58;;;;;;;8.57;2.25;;;;;;;9.83;100.00;100951.66;5033630;28;20075;-74
2022/11/06 08:23:24;;;;;;;8.20;2.60;;;;;;;9.87;100.00;100949.34;5033299;28;20022;-74
2022/11/06 08:25:56;;;;;;;9.30;2.50;;;;;;;9.87;100.00;100946.63;5032838;28;20436;-74
2022/11/06 08:28:23;;;;;;;11.82;2.65;;;;;;;9.88;100.00;100940.19;5030166;28;20041;-74
2022/11/06 08:30:49;;;;;;;10.82;3.00;;;;;;;9.91;100.00;100939.75;5014311;28;20096;-74
2022/11/06 08:33:14;;;;;;;6.00;2.20;;;;;;;9.94;100.00;100940.13;5014096;28;20029;-77
2022/11/06 08:35:39;;;;;;;7.25;2.60;;;;;;;10.00;100.00;100933.03;5014237;28;20425;-77
2022/11/06 08:38:05;;;;;;;7.70;2.55;;;;;;;10.04;100.00;100928.00;5028972;28;20376;-75
2022/11/06 08:40:30;;;;;;;11.27;2.55;;;;;;;10.06;100.00;100931.34;5033876;28;20060;-73
2022/11/06 08:43:04;;;;;;;4.60;2.15;;;;;;;10.11;100.00;100926.09;5033505;28;20420;-80
2022/11/06 08:45:30;;;;;;;6.47;2.60;;;;;;;10.10;100.00;100922.56;5032522;28;20412;-74
2022/11/06 08:48:00;;;;;;;9.00;2.47;;;;;;;10.13;100.00;100920.47;5031774;28;20029;-74
2022/11/06 08:50:25;;;;;;;6.80;2.60;;;;;;;10.14;100.00;100919.41;5033727;28;20017;-74
2022/11/06 08:52:51;;;;;;;7.38;2.45;;;;;;;10.16;100.00;100914.59;5032039;28;20088;-74
2022/11/06 08:55:16;;;;;;;5.82;2.40;;;;;;;10.19;100.00;100914.16;5023455;28;20025;-76
2022/11/06 08:57:42;;;;;;;6.45;2.30;;;;;;;10.22;100.00;100902.91;5032605;28;20377;-77
2022/11/06 09:00:08;;;;;;;7.50;2.85;;;;;;;10.24;100.00;100908.94;5032957;28;20028;-76
2022/11/06 09:02:34;;;;;;;6.15;2.20;;;;;;;10.25;100.00;100913.28;5029123;28;20029;-76
2022/11/06 09:04:59;;;;;;;10.40;2.80;;;;;;;10.29;100.00;100901.78;5022032;28;20026;-75
2022/11/06 09:07:24;;;;;;;7.13;2.72;;;;;;;10.33;100.00;100899.53;5031289;28;20025;-75
2022/11/06 09:09:49;;;;;;;8.20;2.35;;;;;;;10.36;100.00;100892.84;5033158;28;20100;-75
2022/11/06 09:12:15;;;;;;;8.85;2.50;;;;;;;10.38;100.00;100888.84;5030332;28;20021;-75
2022/11/06 09:14:40;;;;;;;7.28;2.35;;;;;;;10.42;100.00;100883.84;5025549;28;20017;-75
2022/11/06 09:17:05;;;;;;;8.02;2.10;;;;;;;10.43;100.00;100880.06;5016539;28;20029;-77
2022/11/06 09:19:30;;;;;;;7.28;2.40;;;;;;;10.46;100.00;100875.06;5011748;28;20036;-75
2022/11/06 09:21:56;;;;;;;7.03;2.53;;;;;;;10.53;100.00;100871.44;5015768;28;20030;-76
2022/11/06 09:24:21;;;;;;;9.20;2.70;;;;;;;10.54;100.00;100863.09;5029683;28;20156;-73
2022/11/06 09:26:46;;;;;;;7.88;2.45;;;;;;;10.58;100.00;100864.31;5024650;28;20061;-73
2022/11/06 09:29:12;;;;;;;5.95;2.17;;;;;;;10.64;100.00;100857.16;5026973;28;20061;-76
2022/11/06 09:31:37;;;;;;;4.97;2.15;;;;;;;10.70;100.00;100845.44;5029804;28;20479;-78
2022/11/06 09:34:02;;;;;;;5.85;2.47;;;;;;;10.72;100.00;100848.75;5021065;28;20029;-73
2022/11/06 09:36:27;;;;;;;6.07;2.22;;;;;;;10.76;100.00;100858.06;5031546;28;20432;-74
2022/11/06 09:38:53;;;;;;;6.47;2.30;;;;;;;10.76;100.00;100849.94;5031801;28;20033;-75
2022/11/06 09:41:43;;;;;;;7.15;2.03;;;;;;;10.77;100.00;100845.38;5030492;28;20583;-73
2022/11/06 09:44:20;;;;;;;6.10;2.17;;;;;;;10.79;100.00;100849.50;5029997;28;20029;-75
2022/11/06 09:46:46;;;;;;;6.82;2.28;;;;;;;10.82;100.00;100854.47;5032175;28;20037;-74
2022/11/06 09:49:27;;;;;;;6.57;2.10;;;;;;;10.88;100.00;100846.47;5026747;28;20118;-77
2022/11/06 09:52:12;;;;;;;6.90;2.23;;;;;;;10.99;100.00;100848.41;5031174;28;20036;-74
2022/11/06 09:54:44;;;;;;;9.45;2.33;;;;;;;11.00;100.00;100844.66;5032004;28;20052;-74
2022/11/06 09:57:19;;;;;;;8.70;2.85;;;;;;;11.02;100.00;100850.69;5026040;28;20049;-74
2022/11/06 09:59:46;;;;;;;10.57;3.83;;;;;;;11.02;100.00;100850.69;5027090;28;20028;-76
2022/11/06 10:02:35;;;;;;;10.40;3.47;;;;;;;11.05;100.00;100846.69;5027455;28;20037;-75
2022/11/06 10:05:05;;;;;;;5.80;2.10;;;;;;;11.06;100.00;100846.44;5024142;28;20469;-75
2022/11/06 10:07:34;;;;;;;9.30;2.15;;;;;;;11.11;100.00;100841.19;5031321;28;20059;-76
2022/11/06 10:10:01;;;;;;;6.07;2.17;;;;;;;11.17;100.00;100836.72;5030637;28;20034;-76
2022/11/06 10:12:32;;;;;;;7.22;2.38;;;;;;;11.22;100.00;100836.03;5032430;28;20112;-76
2022/11/06 10:15:23;;;;;;;8.85;2.33;;;;;;;11.25;100.00;100838.31;5024541;28;20038;-81
2022/11/06 10:18:10;;;;;;;6.55;1.98;;;;;;;11.28;100.00;100829.72;5025975;28;20481;-78
2022/11/06 10:20:51;;;;;;;9.43;2.60;;;;;;;11.26;100.00;100826.41;5035768;28;20186;-77
2022/11/06 10:23:37;;;;;;;8.80;2.40;;;;;;;11.26;100.00;100831.81;5035637;28;20037;-74
2022/11/06 10:26:12;;;;;;;6.88;1.73;;;;;;;11.17;100.00;100825.88;5023865;28;20033;-75
2022/11/06 10:29:02;;;;;;;5.05;2.00;;;;;;;11.17;100.00;100829.44;5035280;28;20021;-74
2022/11/06 10:31:39;;;;;;;8.30;2.33;;;;;;;11.17;100.00;100810.47;5034119;28;20045;-74
2022/11/06 10:34:20;;;;;;;8.23;2.33;;;;;;;11.18;100.00;100820.25;5031670;28;20044;-74
2022/11/06 10:36:51;;;;;;;6.50;2.25;;;;;;;11.18;100.00;100816.72;5035196;28;20037;-74
2022/11/06 10:39:29;;;;;;;8.93;2.42;;;;;;;11.21;100.00;100812.72;5036040;28;20032;-73
2022/11/06 10:42:05;;;;;;;8.52;2.22;;;;;;;11.20;100.00;100801.06;5036215;28;20029;-75
2022/11/06 10:44:55;;;;;;;7.60;2.35;;;;;;;11.27;100.00;100800.97;5033768;28;20052;-74
2022/11/06 10:47:23;;;;;;;8.07;2.85;;;;;;;11.31;100.00;100794.03;5020579;28;20377;-74
2022/11/06 10:49:56;;;;;;;7.60;2.72;;;;;;;11.34;100.00;100782.75;5017835;28;20022;-74
2022/11/06 10:52:43;;;;;;;9.05;2.75;;;;;;;11.38;100.00;100780.38;5029314;28;20076;-73
2022/11/06 10:55:33;;;;;;;7.18;2.30;;;;;;;11.43;100.00;100773.22;5015879;28;20021;-74
2022/11/06 10:58:05;;;;;;;6.93;2.45;;;;;;;11.50;100.00;100768.53;5023654;28;20070;-77
2022/11/06 11:00:30;;;;;;;;;;;;;;;11.61;100.00;100763.34;5022737;28;20021;-74
2022/11/06 11:02:58;;;;;;;7.05;2.30;;;;;;;11.63;100.00;100755.81;5034984;28;20071;-71
2022/11/06 11:05:26;;;;;;;7.38;2.42;;;;;;;11.64;100.00;100746.59;5015808;28;20053;-72
2022/11/06 11:07:53;;;;;;;11.50;2.08;;;;;;;11.66;99.94;100747.22;5014345;28;20417;-72
2022/11/06 11:10:22;;;;;;;9.20;2.47;;;;;;;11.65;100.00;100738.22;5014436;28;20022;-75
2022/11/06 11:12:48;;;;;;;7.13;2.28;;;;;;;11.68;100.00;100747.78;5017041;28;20047;-74
2022/11/06 11:15:19;;;;;;;5.22;2.10;;;;;;;11.70;98.37;100741.09;5034371;28;20033;-74
2022/11/06 11:18:08;;;;;;;6.03;2.13;;;;;;;11.74;100.00;100746.03;5034996;28;20021;-74
2022/11/06 11:20:36;;;;;;;6.75;2.13;;;;;;;11.72;99.49;100742.75;5035331;28;20029;-73
2022/11/06 11:23:05;;;;;;;9.68;2.70;;;;;;;11.70;95.53;100740.25;5034513;28;20109;-74
2022/11/06 11:25:30;;;;;;;5.35;2.10;;;;;;;11.70;97.00;100732.13;5035510;28;20079;-74
2022/11/06 11:27:56;;;;;;;7.70;2.72;;;;;;;11.69;96.48;100719.63;5035461;28;20025;-76
2022/11/06 11:30:28;;;;;;;10.52;2.42;;;;;;;11.68;98.14;100724.25;5032373;28;20041;-73
2022/11/06 11:32:55;;;;;;;7.20;2.25;;;;;;;11.71;96.92;100714.78;5032628;28;20033;-70
2022/11/06 11:35:25;;;;;;;9.13;2.45;;;;;;;11.71;92.59;100714.78;5034403;28;20030;-74
2022/11/06 11:37:51;;;;;;;6.78;2.58;;;;;;;11.69;89.47;100712.31;5028906;28;20104;-72
2022/11/06 11:40:20;;;;;;;10.70;2.85;;;;;;;11.68;91.31;100715.25;5015325;28;20042;-76
2022/11/06 11:42:46;;;;;;;7.70;2.42;;;;;;;11.66;90.09;100712.78;5014334;28;20064;-74
2022/11/06 11:45:14;;;;;;;4.20;1.90;;;;;;;11.61;89.58;100690.16;5027819;28;20053;-71